sensor_id;sensor_type;location;lat;lon;timestamp;temperature;humidity
13446;DHT22;6795;51.232;3.764;2022-10-31T00:01:21;12.20;99.90
13446;DHT22;6795;51.232;3.764;2022-10-31T00:03:50;12.00;99.90
13446;DHT22;6795;51.232;3.764;2022-10-31T00:06:18;11.90;99.90
13446;DHT22;6795;51.232;3.764;2022-10-31T00:08:47;11.60;99.90
13446;DHT22;6795;51.232;3.764;2022-10-31T00:11:21;11.50;99.90
13446;DHT22;6795;51.232;3.764;2022-10-31T00:13:49;11.50;99.90
13446;DHT22;6795;51.232;3.764;2022-10-31T00:16:19;11.50;99.90
13446;DHT22;6795;51.232;3.764;2022-10-31T00:18:48;11.60;99.90
13446;DHT22;6795;51.232;3.764;2022-10-31T00:21:17;11.70;99.90
13446;DHT22;6795;51.232;3.764;2022-10-31T00:23:46;11.80;99.90
13446;DHT22;6795;51.232;3.764;2022-10-31T00:26:15;11.90;99.90
13446;DHT22;6795;51.232;3.764;2022-10-31T00:28:45;11.90;99.90
13446;DHT22;6795;51.232;3.764;2022-10-31T00:31:14;11.90;99.90
13446;DHT22;6795;51.232;3.764;2022-10-31T00:33:42;11.80;99.90
13446;DHT22;6795;51.232;3.764;2022-10-31T00:36:12;11.80;99.90
13446;DHT22;6795;51.232;3.764;2022-10-31T00:38:41;11.80;99.90
13446;DHT22;6795;51.232;3.764;2022-10-31T00:41:10;11.80;99.90
13446;DHT22;6795;51.232;3.764;2022-10-31T00:43:39;11.80;99.90
13446;DHT22;6795;51.232;3.764;2022-10-31T00:46:08;11.80;99.90
13446;DHT22;6795;51.232;3.764;2022-10-31T00:48:37;11.70;99.90
13446;DHT22;6795;51.232;3.764;2022-10-31T00:51:05;11.70;99.90
13446;DHT22;6795;51.232;3.764;2022-10-31T00:53:34;11.60;99.90
13446;DHT22;6795;51.232;3.764;2022-10-31T00:56:03;11.60;99.90
13446;DHT22;6795;51.232;3.764;2022-10-31T00:58:32;11.50;99.90
13446;DHT22;6795;51.232;3.764;2022-10-31T01:01:03;11.40;99.90
13446;DHT22;6795;51.232;3.764;2022-10-31T01:03:33;11.40;99.90
13446;DHT22;6795;51.232;3.764;2022-10-31T01:06:04;11.30;99.90
13446;DHT22;6795;51.232;3.764;2022-10-31T01:08:33;11.20;99.90
13446;DHT22;6795;51.232;3.764;2022-10-31T01:11:05;11.20;99.90
13446;DHT22;6795;51.232;3.764;2022-10-31T01:13:34;11.10;99.90
13446;DHT22;6795;51.232;3.764;2022-10-31T01:16:04;11.00;99.90
13446;DHT22;6795;51.232;3.764;2022-10-31T01:18:34;10.80;99.90
13446;DHT22;6795;51.232;3.764;2022-10-31T01:21:05;10.70;99.90
13446;DHT22;6795;51.232;3.764;2022-10-31T01:23:34;10.60;99.90
13446;DHT22;6795;51.232;3.764;2022-10-31T01:26:05;10.40;99.90
13446;DHT22;6795;51.232;3.764;2022-10-31T01:28:35;10.30;99.90
13446;DHT22;6795;51.232;3.764;2022-10-31T01:31:05;10.30;99.90
13446;DHT22;6795;51.232;3.764;2022-10-31T01:33:36;10.30;99.90
13446;DHT22;6795;51.232;3.764;2022-10-31T01:36:12;10.20;99.90
13446;DHT22;6795;51.232;3.764;2022-10-31T01:38:41;10.10;99.90
13446;DHT22;6795;51.232;3.764;2022-10-31T01:41:10;10.00;99.90
13446;DHT22;6795;51.232;3.764;2022-10-31T01:43:43;10.10;99.90
13446;DHT22;6795;51.232;3.764;2022-10-31T01:46:12;10.20;99.90
13446;DHT22;6795;51.232;3.764;2022-10-31T01:48:42;10.20;99.90
13446;DHT22;6795;51.232;3.764;2022-10-31T01:51:12;10.20;99.90
13446;DHT22;6795;51.232;3.764;2022-10-31T01:53:42;10.30;99.90
13446;DHT22;6795;51.232;3.764;2022-10-31T01:56:15;10.40;99.90
13446;DHT22;6795;51.232;3.764;2022-10-31T01:58:45;10.60;99.90
13446;DHT22;6795;51.232;3.764;2022-10-31T02:01:14;10.70;99.90
13446;DHT22;6795;51.232;3.764;2022-10-31T02:03:46;10.80;99.90
13446;DHT22;6795;51.232;3.764;2022-10-31T02:06:23;10.90;99.90
13446;DHT22;6795;51.232;3.764;2022-10-31T02:08:57;11.00;99.90
13446;DHT22;6795;51.232;3.764;2022-10-31T02:11:28;10.90;99.90
13446;DHT22;6795;51.232;3.764;2022-10-31T02:13:59;10.80;99.90
13446;DHT22;6795;51.232;3.764;2022-10-31T02:16:28;10.90;99.90
13446;DHT22;6795;51.232;3.764;2022-10-31T02:18:58;10.80;99.90
13446;DHT22;6795;51.232;3.764;2022-10-31T02:21:34;10.90;99.90
13446;DHT22;6795;51.232;3.764;2022-10-31T02:24:35;10.90;99.90
13446;DHT22;6795;51.232;3.764;2022-10-31T02:27:16;10.80;99.90
13446;DHT22;6795;51.232;3.764;2022-10-31T02:30:05;10.80;99.90
13446;DHT22;6795;51.232;3.764;2022-10-31T02:32:46;10.60;99.90
13446;DHT22;6795;51.232;3.764;2022-10-31T02:35:28;10.40;99.90
13446;DHT22;6795;51.232;3.764;2022-10-31T02:38:04;10.30;99.90
13446;DHT22;6795;51.232;3.764;2022-10-31T02:40:39;10.10;99.90
13446;DHT22;6795;51.232;3.764;2022-10-31T02:43:15;9.90;99.90
13446;DHT22;6795;51.232;3.764;2022-10-31T02:45:51;9.80;99.90
13446;DHT22;6795;51.232;3.764;2022-10-31T02:48:28;9.70;99.90
13446;DHT22;6795;51.232;3.764;2022-10-31T02:51:00;9.70;99.90
13446;DHT22;6795;51.232;3.764;2022-10-31T02:53:32;9.70;99.90
13446;DHT22;6795;51.232;3.764;2022-10-31T02:56:05;9.80;99.90
13446;DHT22;6795;51.232;3.764;2022-10-31T02:58:38;9.80;99.90
13446;DHT22;6795;51.232;3.764;2022-10-31T03:01:33;9.80;99.90
13446;DHT22;6795;51.232;3.764;2022-10-31T03:04:21;9.70;99.90
13446;DHT22;6795;51.232;3.764;2022-10-31T03:06:56;9.70;99.90
13446;DHT22;6795;51.232;3.764;2022-10-31T03:09:33;9.70;99.90
13446;DHT22;6795;51.232;3.764;2022-10-31T03:12:09;9.80;99.90
13446;DHT22;6795;51.232;3.764;2022-10-31T03:14:41;9.80;99.90
13446;DHT22;6795;51.232;3.764;2022-10-31T03:17:15;9.80;99.90
13446;DHT22;6795;51.232;3.764;2022-10-31T03:19:49;9.80;99.90
13446;DHT22;6795;51.232;3.764;2022-10-31T03:22:22;9.80;99.90
13446;DHT22;6795;51.232;3.764;2022-10-31T03:24:52;9.80;99.90
13446;DHT22;6795;51.232;3.764;2022-10-31T03:27:24;9.80;99.90
13446;DHT22;6795;51.232;3.764;2022-10-31T03:29:56;9.80;99.90
13446;DHT22;6795;51.232;3.764;2022-10-31T03:32:29;9.70;99.90
13446;DHT22;6795;51.232;3.764;2022-10-31T03:35:02;9.70;99.90
13446;DHT22;6795;51.232;3.764;2022-10-31T03:37:33;9.60;99.90
13446;DHT22;6795;51.232;3.764;2022-10-31T03:40:03;9.60;99.90
13446;DHT22;6795;51.232;3.764;2022-10-31T03:42:36;9.70;99.90
13446;DHT22;6795;51.232;3.764;2022-10-31T03:45:08;9.70;99.90
13446;DHT22;6795;51.232;3.764;2022-10-31T03:47:43;9.70;99.90
13446;DHT22;6795;51.232;3.764;2022-10-31T03:50:14;9.70;99.90
13446;DHT22;6795;51.232;3.764;2022-10-31T03:52:49;9.70;99.90
13446;DHT22;6795;51.232;3.764;2022-10-31T03:55:23;9.70;99.90
13446;DHT22;6795;51.232;3.764;2022-10-31T03:57:57;9.70;99.90
13446;DHT22;6795;51.232;3.764;2022-10-31T04:00:26;9.70;99.90
13446;DHT22;6795;51.232;3.764;2022-10-31T04:02:59;9.60;99.90
13446;DHT22;6795;51.232;3.764;2022-10-31T04:05:30;9.50;99.90
13446;DHT22;6795;51.232;3.764;2022-10-31T04:08:00;9.20;99.90
13446;DHT22;6795;51.232;3.764;2022-10-31T04:10:30;9.10;99.90
13446;DHT22;6795;51.232;3.764;2022-10-31T04:13:04;9.10;99.90
13446;DHT22;6795;51.232;3.764;2022-10-31T04:15:35;9.10;99.90
13446;DHT22;6795;51.232;3.764;2022-10-31T04:18:05;9.00;99.90
13446;DHT22;6795;51.232;3.764;2022-10-31T04:20:40;9.00;99.90
13446;DHT22;6795;51.232;3.764;2022-10-31T04:23:16;8.80;99.90
13446;DHT22;6795;51.232;3.764;2022-10-31T04:25:46;8.80;99.90
13446;DHT22;6795;51.232;3.764;2022-10-31T04:28:14;8.80;99.90
13446;DHT22;6795;51.232;3.764;2022-10-31T04:30:42;8.70;99.90
13446;DHT22;6795;51.232;3.764;2022-10-31T04:33:11;8.70;99.90
13446;DHT22;6795;51.232;3.764;2022-10-31T04:35:41;8.80;99.90
13446;DHT22;6795;51.232;3.764;2022-10-31T04:38:09;8.80;99.90
13446;DHT22;6795;51.232;3.764;2022-10-31T04:40:38;8.80;99.90
13446;DHT22;6795;51.232;3.764;2022-10-31T04:43:06;8.80;99.90
13446;DHT22;6795;51.232;3.764;2022-10-31T04:45:35;8.90;99.90
13446;DHT22;6795;51.232;3.764;2022-10-31T04:48:03;8.80;99.90
13446;DHT22;6795;51.232;3.764;2022-10-31T04:50:32;8.80;99.90
13446;DHT22;6795;51.232;3.764;2022-10-31T04:53:01;8.70;99.90
13446;DHT22;6795;51.232;3.764;2022-10-31T04:55:30;8.60;99.90
13446;DHT22;6795;51.232;3.764;2022-10-31T04:57:58;8.60;99.90
13446;DHT22;6795;51.232;3.764;2022-10-31T05:00:27;8.70;99.90
13446;DHT22;6795;51.232;3.764;2022-10-31T05:02:56;8.70;99.90
13446;DHT22;6795;51.232;3.764;2022-10-31T05:05:27;8.50;99.90
13446;DHT22;6795;51.232;3.764;2022-10-31T05:07:56;8.40;99.90
13446;DHT22;6795;51.232;3.764;2022-10-31T05:10:27;8.40;99.90
13446;DHT22;6795;51.232;3.764;2022-10-31T05:12:58;8.50;99.90
13446;DHT22;6795;51.232;3.764;2022-10-31T05:15:28;8.50;99.90
13446;DHT22;6795;51.232;3.764;2022-10-31T05:17:57;8.50;99.90
13446;DHT22;6795;51.232;3.764;2022-10-31T05:20:26;8.40;99.90
13446;DHT22;6795;51.232;3.764;2022-10-31T05:22:56;8.30;99.90
13446;DHT22;6795;51.232;3.764;2022-10-31T05:25:28;8.40;99.90
13446;DHT22;6795;51.232;3.764;2022-10-31T05:27:58;8.50;99.90
13446;DHT22;6795;51.232;3.764;2022-10-31T05:30:29;8.60;99.90
13446;DHT22;6795;51.232;3.764;2022-10-31T05:32:58;8.60;99.90
13446;DHT22;6795;51.232;3.764;2022-10-31T05:35:30;8.60;99.90
13446;DHT22;6795;51.232;3.764;2022-10-31T05:37:58;8.50;99.90
13446;DHT22;6795;51.232;3.764;2022-10-31T05:40:28;8.50;99.90
13446;DHT22;6795;51.232;3.764;2022-10-31T05:42:57;8.50;99.90
13446;DHT22;6795;51.232;3.764;2022-10-31T05:45:26;8.50;99.90
13446;DHT22;6795;51.232;3.764;2022-10-31T05:47:56;8.40;99.90
13446;DHT22;6795;51.232;3.764;2022-10-31T05:50:27;8.30;99.90
13446;DHT22;6795;51.232;3.764;2022-10-31T05:52:58;8.20;99.90
13446;DHT22;6795;51.232;3.764;2022-10-31T05:55:28;8.30;99.90
13446;DHT22;6795;51.232;3.764;2022-10-31T05:57:57;8.20;99.90
13446;DHT22;6795;51.232;3.764;2022-10-31T06:00:26;8.20;99.90
13446;DHT22;6795;51.232;3.764;2022-10-31T06:02:58;8.20;99.90
13446;DHT22;6795;51.232;3.764;2022-10-31T06:05:28;8.30;99.90
13446;DHT22;6795;51.232;3.764;2022-10-31T06:07:56;8.30;99.90
13446;DHT22;6795;51.232;3.764;2022-10-31T06:10:27;8.20;99.90
13446;DHT22;6795;51.232;3.764;2022-10-31T06:12:56;8.10;99.90
13446;DHT22;6795;51.232;3.764;2022-10-31T06:15:25;8.00;99.90
13446;DHT22;6795;51.232;3.764;2022-10-31T06:18:00;8.00;99.90
13446;DHT22;6795;51.232;3.764;2022-10-31T06:20:29;7.90;99.90
13446;DHT22;6795;51.232;3.764;2022-10-31T06:22:58;8.00;99.90
13446;DHT22;6795;51.232;3.764;2022-10-31T06:25:28;8.00;99.90
13446;DHT22;6795;51.232;3.764;2022-10-31T06:27:57;7.90;99.90
13446;DHT22;6795;51.232;3.764;2022-10-31T06:30:25;7.90;99.90
13446;DHT22;6795;51.232;3.764;2022-10-31T06:32:53;7.80;99.90
13446;DHT22;6795;51.232;3.764;2022-10-31T06:35:22;7.80;99.90
13446;DHT22;6795;51.232;3.764;2022-10-31T06:37:51;7.90;99.90
13446;DHT22;6795;51.232;3.764;2022-10-31T06:40:20;8.10;99.90
13446;DHT22;6795;51.232;3.764;2022-10-31T06:42:57;8.20;99.90
13446;DHT22;6795;51.232;3.764;2022-10-31T06:45:25;8.30;99.90
13446;DHT22;6795;51.232;3.764;2022-10-31T06:47:54;8.30;99.90
13446;DHT22;6795;51.232;3.764;2022-10-31T06:50:43;8.20;99.90
13446;DHT22;6795;51.232;3.764;2022-10-31T06:53:11;8.20;99.90
13446;DHT22;6795;51.232;3.764;2022-10-31T06:55:41;8.20;99.90
13446;DHT22;6795;51.232;3.764;2022-10-31T06:58:11;8.20;99.90
13446;DHT22;6795;51.232;3.764;2022-10-31T07:00:39;8.20;99.90
13446;DHT22;6795;51.232;3.764;2022-10-31T07:03:10;8.20;99.90
13446;DHT22;6795;51.232;3.764;2022-10-31T07:05:39;8.30;99.90
13446;DHT22;6795;51.232;3.764;2022-10-31T07:08:09;8.50;99.90
13446;DHT22;6795;51.232;3.764;2022-10-31T07:10:39;8.60;99.90
13446;DHT22;6795;51.232;3.764;2022-10-31T07:13:12;8.70;99.90
13446;DHT22;6795;51.232;3.764;2022-10-31T07:15:41;8.90;99.90
13446;DHT22;6795;51.232;3.764;2022-10-31T07:18:11;9.00;99.90
13446;DHT22;6795;51.232;3.764;2022-10-31T07:20:40;9.20;99.90
13446;DHT22;6795;51.232;3.764;2022-10-31T07:23:09;9.40;99.90
13446;DHT22;6795;51.232;3.764;2022-10-31T07:25:38;9.50;99.90
13446;DHT22;6795;51.232;3.764;2022-10-31T07:28:07;9.60;99.90
13446;DHT22;6795;51.232;3.764;2022-10-31T07:30:37;9.70;99.90
13446;DHT22;6795;51.232;3.764;2022-10-31T07:33:06;9.90;99.90
13446;DHT22;6795;51.232;3.764;2022-10-31T07:35:34;9.90;99.90
13446;DHT22;6795;51.232;3.764;2022-10-31T07:38:10;10.00;99.90
13446;DHT22;6795;51.232;3.764;2022-10-31T07:40:52;10.10;99.90
13446;DHT22;6795;51.232;3.764;2022-10-31T07:44:23;10.30;99.90
13446;DHT22;6795;51.232;3.764;2022-10-31T07:47:40;10.50;99.90
13446;DHT22;6795;51.232;3.764;2022-10-31T07:51:37;10.50;99.90
13446;DHT22;6795;51.232;3.764;2022-10-31T07:54:48;10.60;99.90
13446;DHT22;6795;51.232;3.764;2022-10-31T07:57:58;10.80;99.90
13446;DHT22;6795;51.232;3.764;2022-10-31T08:00:27;10.90;99.90
13446;DHT22;6795;51.232;3.764;2022-10-31T08:02:59;11.00;99.90
13446;DHT22;6795;51.232;3.764;2022-10-31T08:05:28;11.10;99.90
13446;DHT22;6795;51.232;3.764;2022-10-31T08:10:29;11.30;99.90
13446;DHT22;6795;51.232;3.764;2022-10-31T08:13:00;11.30;99.90
13446;DHT22;6795;51.232;3.764;2022-10-31T08:15:29;11.20;99.90
13446;DHT22;6795;51.232;3.764;2022-10-31T08:17:58;11.20;99.90
13446;DHT22;6795;51.232;3.764;2022-10-31T08:20:26;11.20;99.90
13446;DHT22;6795;51.232;3.764;2022-10-31T08:22:58;11.10;99.90
13446;DHT22;6795;51.232;3.764;2022-10-31T08:25:29;11.20;99.90
13446;DHT22;6795;51.232;3.764;2022-10-31T08:28:04;11.20;99.90
13446;DHT22;6795;51.232;3.764;2022-10-31T08:30:35;11.20;99.90
13446;DHT22;6795;51.232;3.764;2022-10-31T08:33:06;11.50;99.90
13446;DHT22;6795;51.232;3.764;2022-10-31T08:35:34;11.60;99.90
13446;DHT22;6795;51.232;3.764;2022-10-31T08:38:02;11.80;99.90
13446;DHT22;6795;51.232;3.764;2022-10-31T08:40:33;11.80;99.90
13446;DHT22;6795;51.232;3.764;2022-10-31T08:43:05;11.80;99.90
13446;DHT22;6795;51.232;3.764;2022-10-31T08:45:34;11.90;99.90
13446;DHT22;6795;51.232;3.764;2022-10-31T08:48:04;12.00;99.90
13446;DHT22;6795;51.232;3.764;2022-10-31T08:50:34;12.10;99.90
13446;DHT22;6795;51.232;3.764;2022-10-31T08:53:04;12.20;99.90
13446;DHT22;6795;51.232;3.764;2022-10-31T08:55:36;12.30;99.90
13446;DHT22;6795;51.232;3.764;2022-10-31T08:58:07;12.40;99.90
13446;DHT22;6795;51.232;3.764;2022-10-31T09:00:35;12.70;99.90
13446;DHT22;6795;51.232;3.764;2022-10-31T09:03:05;12.70;99.90
13446;DHT22;6795;51.232;3.764;2022-10-31T09:05:34;12.70;99.90
13446;DHT22;6795;51.232;3.764;2022-10-31T09:08:04;12.70;99.90
13446;DHT22;6795;51.232;3.764;2022-10-31T09:10:37;12.70;99.90
13446;DHT22;6795;51.232;3.764;2022-10-31T09:13:08;12.70;99.90
13446;DHT22;6795;51.232;3.764;2022-10-31T09:15:39;12.70;99.90
13446;DHT22;6795;51.232;3.764;2022-10-31T09:18:08;12.60;99.90
13446;DHT22;6795;51.232;3.764;2022-10-31T09:20:38;12.60;99.90
13446;DHT22;6795;51.232;3.764;2022-10-31T09:23:09;12.70;99.90
13446;DHT22;6795;51.232;3.764;2022-10-31T09:25:41;12.70;99.90
13446;DHT22;6795;51.232;3.764;2022-10-31T09:28:17;12.70;99.90
13446;DHT22;6795;51.232;3.764;2022-10-31T09:30:47;12.80;99.90
13446;DHT22;6795;51.232;3.764;2022-10-31T09:33:16;12.90;99.90
13446;DHT22;6795;51.232;3.764;2022-10-31T09:35:44;12.90;99.90
13446;DHT22;6795;51.232;3.764;2022-10-31T09:38:16;12.90;99.90
13446;DHT22;6795;51.232;3.764;2022-10-31T09:40:55;13.00;99.90
13446;DHT22;6795;51.232;3.764;2022-10-31T09:43:29;13.10;99.90
13446;DHT22;6795;51.232;3.764;2022-10-31T09:46:04;13.10;99.90
13446;DHT22;6795;51.232;3.764;2022-10-31T09:48:48;13.20;99.90
13446;DHT22;6795;51.232;3.764;2022-10-31T09:51:25;13.20;99.90
13446;DHT22;6795;51.232;3.764;2022-10-31T09:56:27;13.40;99.90
13446;DHT22;6795;51.232;3.764;2022-10-31T09:59:00;13.50;99.90
13446;DHT22;6795;51.232;3.764;2022-10-31T10:01:34;13.60;99.90
13446;DHT22;6795;51.232;3.764;2022-10-31T10:04:20;13.60;99.90
13446;DHT22;6795;51.232;3.764;2022-10-31T10:06:52;13.80;99.90
13446;DHT22;6795;51.232;3.764;2022-10-31T10:09:24;14.00;99.90
13446;DHT22;6795;51.232;3.764;2022-10-31T10:12:03;14.10;99.90
13446;DHT22;6795;51.232;3.764;2022-10-31T10:14:45;14.10;99.90
13446;DHT22;6795;51.232;3.764;2022-10-31T10:17:26;14.20;99.90
13446;DHT22;6795;51.232;3.764;2022-10-31T10:20:13;14.30;99.90
13446;DHT22;6795;51.232;3.764;2022-10-31T10:22:52;14.40;99.90
13446;DHT22;6795;51.232;3.764;2022-10-31T10:25:24;14.50;99.90
13446;DHT22;6795;51.232;3.764;2022-10-31T10:28:04;14.70;99.90
13446;DHT22;6795;51.232;3.764;2022-10-31T10:30:40;14.70;99.90
13446;DHT22;6795;51.232;3.764;2022-10-31T10:33:12;14.80;99.90
13446;DHT22;6795;51.232;3.764;2022-10-31T10:35:45;15.00;99.90
13446;DHT22;6795;51.232;3.764;2022-10-31T10:38:20;15.10;99.90
13446;DHT22;6795;51.232;3.764;2022-10-31T10:40:51;15.10;99.90
13446;DHT22;6795;51.232;3.764;2022-10-31T10:43:24;15.10;99.90
13446;DHT22;6795;51.232;3.764;2022-10-31T10:46:01;15.10;99.90
13446;DHT22;6795;51.232;3.764;2022-10-31T10:48:56;15.20;99.90
13446;DHT22;6795;51.232;3.764;2022-10-31T10:51:31;15.20;99.90
13446;DHT22;6795;51.232;3.764;2022-10-31T10:54:38;15.40;99.90
13446;DHT22;6795;51.232;3.764;2022-10-31T10:57:22;15.60;99.90
13446;DHT22;6795;51.232;3.764;2022-10-31T10:59:53;16.00;99.90
13446;DHT22;6795;51.232;3.764;2022-10-31T11:02:23;16.40;99.90
13446;DHT22;6795;51.232;3.764;2022-10-31T11:04:54;16.80;99.90
13446;DHT22;6795;51.232;3.764;2022-10-31T11:07:25;16.90;99.90
13446;DHT22;6795;51.232;3.764;2022-10-31T11:10:03;17.10;99.90
13446;DHT22;6795;51.232;3.764;2022-10-31T11:12:33;17.10;99.90
13446;DHT22;6795;51.232;3.764;2022-10-31T11:15:18;16.80;99.90
13446;DHT22;6795;51.232;3.764;2022-10-31T11:17:49;16.70;99.90
13446;DHT22;6795;51.232;3.764;2022-10-31T11:20:30;16.60;99.90
13446;DHT22;6795;51.232;3.764;2022-10-31T11:23:05;16.60;99.90
13446;DHT22;6795;51.232;3.764;2022-10-31T11:25:48;16.40;99.90
13446;DHT22;6795;51.232;3.764;2022-10-31T11:28:17;16.30;99.90
13446;DHT22;6795;51.232;3.764;2022-10-31T11:30:50;16.30;99.90
13446;DHT22;6795;51.232;3.764;2022-10-31T11:33:23;16.40;99.90
13446;DHT22;6795;51.232;3.764;2022-10-31T11:35:53;16.50;99.90
13446;DHT22;6795;51.232;3.764;2022-10-31T11:38:29;16.50;99.90
13446;DHT22;6795;51.232;3.764;2022-10-31T11:41:14;16.40;99.90
13446;DHT22;6795;51.232;3.764;2022-10-31T11:43:48;16.30;99.90
13446;DHT22;6795;51.232;3.764;2022-10-31T11:46:23;16.20;99.90
13446;DHT22;6795;51.232;3.764;2022-10-31T11:48:55;16.30;99.90
13446;DHT22;6795;51.232;3.764;2022-10-31T11:51:28;16.40;99.90
13446;DHT22;6795;51.232;3.764;2022-10-31T11:53:59;16.40;99.90
13446;DHT22;6795;51.232;3.764;2022-10-31T11:56:38;16.30;99.90
13446;DHT22;6795;51.232;3.764;2022-10-31T11:59:21;16.30;99.90
13446;DHT22;6795;51.232;3.764;2022-10-31T12:01:53;16.30;99.90
13446;DHT22;6795;51.232;3.764;2022-10-31T12:04:34;16.40;99.90
13446;DHT22;6795;51.232;3.764;2022-10-31T12:07:03;16.50;99.90
13446;DHT22;6795;51.232;3.764;2022-10-31T12:09:36;16.70;99.90
13446;DHT22;6795;51.232;3.764;2022-10-31T12:15:27;16.80;99.90
13446;DHT22;6795;51.232;3.764;2022-10-31T12:18:12;16.80;99.90
13446;DHT22;6795;51.232;3.764;2022-10-31T12:20:55;16.90;99.90
13446;DHT22;6795;51.232;3.764;2022-10-31T12:23:32;16.90;99.90
13446;DHT22;6795;51.232;3.764;2022-10-31T12:26:11;16.80;99.90
13446;DHT22;6795;51.232;3.764;2022-10-31T12:28:56;16.80;99.90
13446;DHT22;6795;51.232;3.764;2022-10-31T12:31:44;16.80;99.90
13446;DHT22;6795;51.232;3.764;2022-10-31T12:34:40;16.90;99.90
13446;DHT22;6795;51.232;3.764;2022-10-31T12:37:23;16.90;99.90
13446;DHT22;6795;51.232;3.764;2022-10-31T12:40:09;17.00;99.90
13446;DHT22;6795;51.232;3.764;2022-10-31T12:42:49;17.00;99.90
13446;DHT22;6795;51.232;3.764;2022-10-31T12:45:44;17.00;99.90
13446;DHT22;6795;51.232;3.764;2022-10-31T12:48:29;17.00;99.90
13446;DHT22;6795;51.232;3.764;2022-10-31T12:51:10;17.00;99.90
13446;DHT22;6795;51.232;3.764;2022-10-31T12:53:50;17.00;99.90
13446;DHT22;6795;51.232;3.764;2022-10-31T12:56:35;16.90;99.90
13446;DHT22;6795;51.232;3.764;2022-10-31T12:59:20;16.90;99.90
13446;DHT22;6795;51.232;3.764;2022-10-31T13:01:53;16.90;99.90
13446;DHT22;6795;51.232;3.764;2022-10-31T13:04:33;16.90;99.90
13446;DHT22;6795;51.232;3.764;2022-10-31T13:07:08;16.90;99.90
13446;DHT22;6795;51.232;3.764;2022-10-31T13:09:42;16.90;99.90
13446;DHT22;6795;51.232;3.764;2022-10-31T13:12:16;16.90;99.90
13446;DHT22;6795;51.232;3.764;2022-10-31T13:14:49;16.80;99.90
13446;DHT22;6795;51.232;3.764;2022-10-31T13:17:23;16.80;99.90
13446;DHT22;6795;51.232;3.764;2022-10-31T13:19:55;16.90;99.90
13446;DHT22;6795;51.232;3.764;2022-10-31T13:22:31;17.00;99.90
13446;DHT22;6795;51.232;3.764;2022-10-31T13:25:14;17.00;99.90
13446;DHT22;6795;51.232;3.764;2022-10-31T13:27:46;16.90;99.90
13446;DHT22;6795;51.232;3.764;2022-10-31T13:30:19;16.90;99.90
13446;DHT22;6795;51.232;3.764;2022-10-31T13:32:51;16.80;99.90
13446;DHT22;6795;51.232;3.764;2022-10-31T13:35:26;16.80;99.90
13446;DHT22;6795;51.232;3.764;2022-10-31T13:38:09;16.80;99.90
13446;DHT22;6795;51.232;3.764;2022-10-31T13:40:45;16.80;99.90
13446;DHT22;6795;51.232;3.764;2022-10-31T13:43:25;16.80;99.90
13446;DHT22;6795;51.232;3.764;2022-10-31T13:45:55;17.00;99.90
13446;DHT22;6795;51.232;3.764;2022-10-31T13:48:37;17.50;99.90
13446;DHT22;6795;51.232;3.764;2022-10-31T13:51:09;17.90;99.90
13446;DHT22;6795;51.232;3.764;2022-10-31T13:53:43;17.90;99.90
13446;DHT22;6795;51.232;3.764;2022-10-31T13:56:19;17.90;99.90
13446;DHT22;6795;51.232;3.764;2022-10-31T13:59:05;17.80;99.90
13446;DHT22;6795;51.232;3.764;2022-10-31T14:01:34;17.80;99.90
13446;DHT22;6795;51.232;3.764;2022-10-31T14:04:05;17.70;99.90
13446;DHT22;6795;51.232;3.764;2022-10-31T14:06:57;17.70;99.90
13446;DHT22;6795;51.232;3.764;2022-10-31T14:09:33;17.70;99.90
13446;DHT22;6795;51.232;3.764;2022-10-31T14:12:04;18.20;99.90
13446;DHT22;6795;51.232;3.764;2022-10-31T14:14:42;18.30;99.90
13446;DHT22;6795;51.232;3.764;2022-10-31T14:17:19;18.30;99.90
13446;DHT22;6795;51.232;3.764;2022-10-31T14:22:46;18.30;99.90
13446;DHT22;6795;51.232;3.764;2022-10-31T14:25:28;18.30;99.90
13446;DHT22;6795;51.232;3.764;2022-10-31T14:27:58;18.20;99.90
13446;DHT22;6795;51.232;3.764;2022-10-31T14:30:29;18.00;99.90
13446;DHT22;6795;51.232;3.764;2022-10-31T14:33:01;17.80;99.90
13446;DHT22;6795;51.232;3.764;2022-10-31T14:35:44;17.60;99.90
13446;DHT22;6795;51.232;3.764;2022-10-31T14:38:43;17.60;99.90
13446;DHT22;6795;51.232;3.764;2022-10-31T14:41:35;17.40;99.90
13446;DHT22;6795;51.232;3.764;2022-10-31T14:44:38;17.40;99.90
13446;DHT22;6795;51.232;3.764;2022-10-31T14:47:16;17.30;99.90
13446;DHT22;6795;51.232;3.764;2022-10-31T14:50:18;17.20;99.90
13446;DHT22;6795;51.232;3.764;2022-10-31T14:52:51;17.30;99.90
13446;DHT22;6795;51.232;3.764;2022-10-31T14:55:21;17.20;99.90
13446;DHT22;6795;51.232;3.764;2022-10-31T14:57:54;17.10;99.90
13446;DHT22;6795;51.232;3.764;2022-10-31T15:00:24;17.10;99.90
13446;DHT22;6795;51.232;3.764;2022-10-31T15:03:01;17.00;99.90
13446;DHT22;6795;51.232;3.764;2022-10-31T15:05:32;17.00;99.90
13446;DHT22;6795;51.232;3.764;2022-10-31T15:08:02;17.00;99.90
13446;DHT22;6795;51.232;3.764;2022-10-31T15:10:32;16.90;99.90
13446;DHT22;6795;51.232;3.764;2022-10-31T15:13:17;17.00;99.90
13446;DHT22;6795;51.232;3.764;2022-10-31T15:15:46;17.10;99.90
13446;DHT22;6795;51.232;3.764;2022-10-31T15:18:24;17.00;99.90
13446;DHT22;6795;51.232;3.764;2022-10-31T15:20:53;16.90;99.90
13446;DHT22;6795;51.232;3.764;2022-10-31T15:23:25;16.80;99.90
13446;DHT22;6795;51.232;3.764;2022-10-31T15:26:01;16.80;99.90
13446;DHT22;6795;51.232;3.764;2022-10-31T15:28:34;16.70;99.90
13446;DHT22;6795;51.232;3.764;2022-10-31T15:31:02;16.60;99.90
13446;DHT22;6795;51.232;3.764;2022-10-31T15:33:41;16.50;99.90
13446;DHT22;6795;51.232;3.764;2022-10-31T15:38:43;16.40;99.90
13446;DHT22;6795;51.232;3.764;2022-10-31T15:41:26;16.30;99.90
13446;DHT22;6795;51.232;3.764;2022-10-31T15:44:02;16.20;99.90
13446;DHT22;6795;51.232;3.764;2022-10-31T15:46:31;16.20;99.90
13446;DHT22;6795;51.232;3.764;2022-10-31T15:49:00;16.30;99.90
13446;DHT22;6795;51.232;3.764;2022-10-31T15:51:31;16.30;99.90
13446;DHT22;6795;51.232;3.764;2022-10-31T15:54:01;16.30;99.90
13446;DHT22;6795;51.232;3.764;2022-10-31T15:56:30;16.30;99.90
13446;DHT22;6795;51.232;3.764;2022-10-31T15:59:01;16.20;99.90
13446;DHT22;6795;51.232;3.764;2022-10-31T16:01:31;16.20;99.90
13446;DHT22;6795;51.232;3.764;2022-10-31T16:04:03;16.10;99.90
13446;DHT22;6795;51.232;3.764;2022-10-31T16:06:33;16.00;99.90
13446;DHT22;6795;51.232;3.764;2022-10-31T16:09:03;15.90;99.90
13446;DHT22;6795;51.232;3.764;2022-10-31T16:11:34;15.80;99.90
13446;DHT22;6795;51.232;3.764;2022-10-31T16:14:07;15.80;99.90
13446;DHT22;6795;51.232;3.764;2022-10-31T16:16:47;15.70;99.90
13446;DHT22;6795;51.232;3.764;2022-10-31T16:19:20;15.60;99.90
13446;DHT22;6795;51.232;3.764;2022-10-31T16:21:53;15.70;99.90
13446;DHT22;6795;51.232;3.764;2022-10-31T16:24:26;15.70;99.90
13446;DHT22;6795;51.232;3.764;2022-10-31T16:27:02;15.60;99.90
13446;DHT22;6795;51.232;3.764;2022-10-31T16:29:39;15.60;99.90
13446;DHT22;6795;51.232;3.764;2022-10-31T16:32:25;15.40;99.90
13446;DHT22;6795;51.232;3.764;2022-10-31T16:35:02;15.30;99.90
13446;DHT22;6795;51.232;3.764;2022-10-31T16:37:44;15.30;99.90
13446;DHT22;6795;51.232;3.764;2022-10-31T16:40:13;15.40;99.90
13446;DHT22;6795;51.232;3.764;2022-10-31T16:42:45;15.30;99.90
13446;DHT22;6795;51.232;3.764;2022-10-31T16:45:17;15.20;99.90
13446;DHT22;6795;51.232;3.764;2022-10-31T16:47:46;15.00;99.90